createdAt,value
2022-12-17T00:08:02.207Z,11.29
2022-12-17T00:20:02.115Z,11.28
2022-12-17T00:32:02.205Z,11.27
2022-12-17T00:44:02.191Z,11.26
2022-12-17T00:56:02.097Z,11.25
2022-12-17T01:08:02.108Z,11.24
2022-12-17T01:20:02.201Z,11.23
2022-12-17T01:32:02.142Z,11.21
2022-12-17T01:44:02.196Z,11.21
2022-12-17T01:56:02.188Z,11.19
2022-12-17T02:08:02.099Z,11.18
2022-12-17T02:20:02.096Z,11.18
2022-12-17T02:32:02.135Z,11.15
2022-12-17T02:44:02.202Z,11.15
2022-12-17T02:56:02.207Z,11.14
2022-12-17T03:08:02.224Z,11.13
2022-12-17T03:20:02.227Z,11.12
2022-12-17T03:32:02.195Z,11.11
2022-12-17T03:44:02.212Z,11.10
2022-12-17T03:56:02.197Z,11.07
2022-12-17T04:08:02.199Z,11.07
2022-12-17T04:20:02.214Z,11.04
2022-12-17T04:32:02.104Z,11.05
2022-12-17T04:44:03.397Z,11.04
2022-12-17T04:56:02.137Z,11.03
2022-12-17T05:08:02.112Z,11.03
2022-12-17T05:20:02.216Z,11.02
2022-12-17T05:32:02.099Z,11.01
2022-12-17T05:44:02.206Z,11.00
2022-12-17T05:56:02.218Z,10.98
2022-12-17T06:08:02.518Z,10.99
2022-12-17T06:20:02.139Z,10.97
2022-12-17T06:32:02.186Z,10.96
2022-12-17T06:44:02.199Z,10.96
2022-12-17T06:56:02.167Z,10.96
2022-12-17T07:08:02.103Z,10.96
2022-12-17T07:20:02.101Z,10.95
2022-12-17T07:32:02.202Z,10.95
2022-12-17T07:44:02.192Z,10.94
2022-12-17T07:56:02.269Z,10.94
2022-12-17T08:08:02.153Z,10.93
2022-12-17T08:20:02.114Z,10.94
2022-12-17T08:32:02.095Z,10.94
2022-12-17T08:44:02.094Z,10.92
2022-12-17T08:56:02.097Z,10.94
2022-12-17T09:08:02.131Z,10.95
2022-12-17T09:20:02.090Z,10.96
2022-12-17T09:32:02.097Z,10.98
2022-12-17T09:44:02.110Z,11.00
2022-12-17T09:56:02.176Z,11.01
2022-12-17T10:08:02.113Z,11.01
2022-12-17T10:20:02.100Z,11.02
2022-12-17T10:32:02.099Z,11.07
2022-12-17T10:44:02.145Z,11.09
2022-12-17T10:56:02.093Z,11.10
2022-12-17T11:08:02.108Z,11.37
2022-12-17T11:20:02.189Z,11.51
2022-12-17T11:32:02.206Z,11.62
2022-12-17T11:44:02.102Z,11.57
2022-12-17T11:56:02.104Z,11.81
2022-12-17T12:08:02.176Z,11.78
2022-12-17T12:20:02.211Z,11.96
2022-12-17T12:32:02.150Z,12.14
2022-12-17T12:44:02.214Z,12.19
2022-12-17T12:56:02.097Z,12.37
2022-12-17T13:08:02.223Z,12.43
2022-12-17T13:20:02.228Z,12.42
2022-12-17T13:32:02.135Z,12.58
2022-12-17T13:44:02.216Z,12.67
2022-12-17T13:56:02.107Z,12.74
2022-12-17T14:08:02.101Z,12.75
2022-12-17T14:20:02.103Z,12.78
2022-12-17T14:32:02.711Z,12.84
2022-12-17T14:44:02.098Z,12.22
2022-12-17T14:56:02.097Z,12.14
2022-12-17T15:08:02.107Z,12.10
2022-12-17T15:20:02.214Z,12.06
2022-12-17T15:32:02.099Z,12.01
2022-12-17T15:44:02.097Z,11.99
2022-12-17T15:56:02.099Z,11.95
2022-12-17T16:08:02.145Z,11.93
2022-12-17T16:20:02.094Z,11.91
2022-12-17T16:32:02.093Z,11.89
2022-12-17T16:44:02.106Z,11.84
2022-12-17T16:56:02.099Z,11.81
2022-12-17T17:08:02.097Z,11.83
2022-12-17T17:20:02.098Z,11.81
2022-12-17T17:32:10.898Z,11.79
2022-12-17T17:44:02.170Z,11.74
2022-12-17T17:56:02.093Z,11.75
2022-12-17T18:08:02.214Z,11.74
2022-12-17T18:20:02.099Z,11.73
2022-12-17T18:32:02.156Z,11.70
2022-12-17T18:44:02.101Z,11.68
2022-12-17T18:56:02.095Z,11.67
2022-12-17T19:08:02.094Z,11.66
2022-12-17T19:20:02.514Z,11.63
2022-12-17T19:32:02.177Z,11.63
2022-12-17T19:44:02.149Z,12.16
2022-12-17T19:56:02.093Z,12.15
2022-12-17T20:08:02.095Z,12.14
2022-12-17T20:20:02.095Z,12.13
2022-12-17T20:32:02.179Z,12.11
2022-12-17T20:44:02.099Z,12.09
2022-12-17T20:56:02.165Z,12.08
2022-12-17T21:08:02.107Z,12.07
2022-12-17T21:20:06.659Z,12.06
2022-12-17T21:32:02.101Z,12.02
2022-12-17T21:44:02.168Z,12.03
2022-12-17T21:56:02.102Z,12.02
2022-12-17T22:08:02.105Z,12.01
2022-12-17T22:20:02.101Z,12.00
2022-12-17T22:32:02.100Z,11.98
2022-12-17T22:44:46.298Z,11.97
2022-12-17T22:56:07.971Z,11.95
2022-12-17T23:08:02.102Z,11.94
2022-12-17T23:20:02.143Z,11.93
2022-12-17T23:32:02.100Z,11.91
2022-12-17T23:44:02.148Z,11.91
2022-12-17T23:56:02.142Z,11.90
